createdAt,value
2022-08-05T00:01:55.452Z,12.68
2022-08-05T00:04:36.626Z,11.38
2022-08-05T00:07:27.237Z,11.43
2022-08-05T00:09:54.533Z,10.23
2022-08-05T00:12:24.435Z,11.15
2022-08-05T00:14:52.935Z,10.40
2022-08-05T00:17:21.929Z,12.25
2022-08-05T00:20:01.785Z,11.60
2022-08-05T00:22:30.977Z,10.80
2022-08-05T00:24:59.399Z,12.10
2022-08-05T00:27:36.109Z,13.57
2022-08-05T00:30:11.319Z,14.40
2022-08-05T00:32:40.465Z,11.00
2022-08-05T00:35:10.126Z,14.55
2022-08-05T00:37:52.993Z,11.02
2022-08-05T00:40:26.980Z,13.30
2022-08-05T00:42:59.610Z,14.65
2022-08-05T00:45:43.601Z,10.23
2022-08-05T00:48:13.896Z,11.93
2022-08-05T00:50:46.072Z,10.25
2022-08-05T00:54:01.325Z,10.80
2022-08-05T00:56:07.891Z,7.65
2022-08-05T00:58:38.918Z,8.73
2022-08-05T01:01:12.659Z,14.52
2022-08-05T01:03:41.742Z,12.60
2022-08-05T01:06:14.210Z,6.88
2022-08-05T01:08:47.137Z,11.55
2022-08-05T01:11:33.314Z,10.02
2022-08-05T01:14:15.576Z,12.02
2022-08-05T01:16:52.450Z,10.43
2022-08-05T01:20:01.746Z,9.90
2022-08-05T01:22:41.660Z,13.30
2022-08-05T01:25:53.496Z,11.95
2022-08-05T01:28:34.078Z,14.77
2022-08-05T01:31:10.391Z,12.88
2022-08-05T01:33:49.325Z,11.10
2022-08-05T01:36:28.100Z,14.65
2022-08-05T01:39:00.372Z,13.55
2022-08-05T01:41:37.598Z,19.27
2022-08-05T01:44:09.870Z,13.75
2022-08-05T01:46:42.002Z,19.17
2022-08-05T01:49:24.131Z,19.23
2022-08-05T01:51:59.700Z,20.30
2022-08-05T01:54:46.181Z,17.27
2022-08-05T01:58:29.218Z,19.48
2022-08-05T02:00:12.661Z,21.05
2022-08-05T02:02:54.723Z,20.75
2022-08-05T02:05:29.456Z,21.33
2022-08-05T02:08:01.159Z,24.48
2022-08-05T02:10:36.450Z,25.85
2022-08-05T02:13:16.125Z,34.33
2022-08-05T02:15:54.962Z,30.13
2022-08-05T02:18:34.953Z,34.63
2022-08-05T02:21:15.085Z,36.22
2022-08-05T02:23:49.287Z,29.95
2022-08-05T02:26:26.656Z,37.30
2022-08-05T02:28:58.163Z,39.88
2022-08-05T02:31:35.035Z,35.87
2022-08-05T02:34:09.228Z,37.67
2022-08-05T02:36:43.785Z,29.65
2022-08-05T02:39:14.169Z,28.58
2022-08-05T02:42:00.551Z,25.58
2022-08-05T02:44:31.916Z,28.10
2022-08-05T02:47:03.023Z,27.50
2022-08-05T02:49:40.331Z,30.42
2022-08-05T02:52:25.848Z,24.00
2022-08-05T02:55:01.842Z,26.55
2022-08-05T02:58:11.774Z,23.25
2022-08-05T03:00:25.483Z,24.33
2022-08-05T03:06:57.088Z,26.50
2022-08-05T03:08:16.577Z,28.15
2022-08-05T03:11:53.307Z,26.50
2022-08-05T03:13:51.438Z,27.75
2022-08-05T03:16:23.458Z,25.88
2022-08-05T03:18:54.018Z,28.88
2022-08-05T03:21:28.885Z,29.30
2022-08-05T03:24:02.788Z,27.33
2022-08-05T03:26:32.725Z,26.73
2022-08-05T03:29:01.523Z,28.88
2022-08-05T03:31:56.228Z,26.25
2022-08-05T03:34:21.282Z,25.23
2022-08-05T03:36:52.899Z,26.70
2022-08-05T03:39:27.017Z,28.40
2022-08-05T03:41:56.582Z,26.75
2022-08-05T03:44:25.409Z,25.13
2022-08-05T03:49:51.019Z,30.77
2022-08-05T03:52:37.866Z,29.65
2022-08-05T03:56:05.718Z,35.47
2022-08-05T03:58:15.996Z,34.45
2022-08-05T04:00:51.561Z,38.60
2022-08-05T04:03:28.168Z,44.88
2022-08-05T04:05:59.893Z,45.90
2022-08-05T04:08:36.291Z,40.13
2022-08-05T04:11:08.674Z,44.28
2022-08-05T04:13:51.027Z,48.03
2022-08-05T04:16:24.235Z,41.67
2022-08-05T04:18:54.785Z,43.78
2022-08-05T04:22:08.715Z,43.15
2022-08-05T04:24:19.704Z,46.45
2022-08-05T04:26:51.259Z,45.60
2022-08-05T04:29:19.979Z,46.45
2022-08-05T04:31:49.626Z,42.63
2022-08-05T04:34:32.255Z,37.28
2022-08-05T04:37:06.699Z,41.75
2022-08-05T04:39:35.397Z,40.35
2022-08-05T04:42:04.764Z,43.20
2022-08-05T04:44:33.061Z,41.60
2022-08-05T04:47:08.975Z,38.10
2022-08-05T04:50:02.508Z,38.30
2022-08-05T04:52:33.391Z,45.05
2022-08-05T04:55:13.940Z,46.42
2022-08-05T04:57:51.589Z,49.92
2022-08-05T05:00:23.383Z,55.25
2022-08-05T05:02:52.808Z,57.42
2022-08-05T05:05:28.143Z,57.25
2022-08-05T05:08:03.479Z,63.58
2022-08-05T05:10:38.932Z,64.30
2022-08-05T05:13:09.628Z,78.40
2022-08-05T05:15:56.522Z,73.13
2022-08-05T05:18:31.405Z,74.63
2022-08-05T05:21:04.190Z,77.70
2022-08-05T05:24:03.961Z,79.57
2022-08-05T05:26:28.109Z,83.05
2022-08-05T05:29:02.399Z,80.35
2022-08-05T05:34:02.493Z,86.57
2022-08-05T05:36:33.370Z,86.72
2022-08-05T05:39:10.869Z,83.68
2022-08-05T05:41:40.405Z,90.07
2022-08-05T05:44:35.730Z,88.90
2022-08-05T05:47:04.335Z,87.30
2022-08-05T05:49:33.527Z,91.15
2022-08-05T05:52:06.001Z,88.63
2022-08-05T05:54:50.172Z,98.82
2022-08-05T05:57:20.860Z,109.72
2022-08-05T05:59:49.753Z,105.35
2022-08-05T06:02:32.638Z,93.93
2022-08-05T06:05:10.520Z,89.25
2022-08-05T06:08:01.218Z,94.20
2022-08-05T06:10:37.409Z,84.85
2022-08-05T06:13:17.360Z,86.32
2022-08-05T06:16:29.146Z,90.75
2022-08-05T06:18:36.602Z,103.97
2022-08-05T06:21:08.001Z,97.25
2022-08-05T06:23:46.967Z,105.90
2022-08-05T06:26:23.947Z,103.47
2022-08-05T06:28:53.447Z,113.60
2022-08-05T06:31:22.594Z,110.97
2022-08-05T06:34:07.337Z,111.65
2022-08-05T06:36:57.218Z,120.75
2022-08-05T06:39:27.908Z,108.55
2022-08-05T06:42:01.246Z,101.78
2022-08-05T06:44:32.965Z,87.65
2022-08-05T06:47:02.378Z,88.25
2022-08-05T06:50:01.371Z,90.88
2022-08-05T06:52:36.693Z,92.15
2022-08-05T06:55:06.661Z,91.32
2022-08-05T06:57:57.981Z,93.90
2022-08-05T07:00:25.620Z,80.95
2022-08-05T07:02:54.902Z,78.88
2022-08-05T07:05:31.830Z,63.95
2022-08-05T07:08:10.913Z,63.83
2022-08-05T07:10:53.124Z,57.28
2022-08-05T07:17:59.465Z,64.00
2022-08-05T07:22:28.504Z,67.18
2022-08-05T07:25:54.757Z,66.75
2022-08-05T07:27:58.296Z,63.03
2022-08-05T07:30:33.404Z,44.55
2022-08-05T07:33:05.309Z,48.95
2022-08-05T07:36:04.399Z,44.80
2022-08-05T07:38:33.619Z,36.30
2022-08-05T07:42:09.118Z,42.92
2022-08-05T07:43:56.540Z,37.50
2022-08-05T07:46:28.738Z,47.38
2022-08-05T07:49:02.346Z,34.40
2022-08-05T07:51:41.143Z,35.63
2022-08-05T07:54:31.668Z,35.63
2022-08-05T07:57:17.554Z,37.78
2022-08-05T07:59:52.079Z,34.53
2022-08-05T08:02:30.950Z,32.17
2022-08-05T08:05:00.628Z,30.45
2022-08-05T08:07:39.780Z,31.15
2022-08-05T08:10:20.626Z,31.90
2022-08-05T08:12:50.015Z,32.22
2022-08-05T08:15:37.331Z,31.63
2022-08-05T08:18:13.859Z,32.25
2022-08-05T08:21:02.201Z,35.33
2022-08-05T08:24:02.973Z,33.47
2022-08-05T08:26:29.453Z,31.98
2022-08-05T08:29:21.970Z,28.50
2022-08-05T08:31:48.822Z,30.60
2022-08-05T08:34:18.983Z,31.30
2022-08-05T08:37:04.653Z,30.15
2022-08-05T08:39:37.488Z,33.55
2022-08-05T08:45:23.346Z,35.90
2022-08-05T08:48:07.138Z,28.27
2022-08-05T08:51:21.929Z,23.25
2022-08-05T08:53:35.617Z,27.70
2022-08-05T08:56:06.191Z,27.95
2022-08-05T08:58:43.415Z,24.25
2022-08-05T09:01:18.331Z,27.75
2022-08-05T09:03:54.353Z,24.30
2022-08-05T09:06:30.505Z,27.30
2022-08-05T09:09:01.410Z,21.25
2022-08-05T09:11:53.790Z,20.77
2022-08-05T09:14:56.768Z,24.25
2022-08-05T09:17:15.920Z,15.32
2022-08-05T09:20:02.392Z,20.48
2022-08-05T09:23:18.952Z,17.00
2022-08-05T09:26:01.097Z,14.35
2022-08-05T09:28:35.053Z,14.73
2022-08-05T09:31:22.925Z,13.57
2022-08-05T09:33:58.425Z,16.17
2022-08-05T09:39:39.290Z,15.77
2022-08-05T09:42:17.743Z,12.13
2022-08-05T09:44:56.828Z,16.70
2022-08-05T09:47:36.307Z,11.45
2022-08-05T09:50:37.303Z,11.63
2022-08-05T09:53:09.118Z,14.43
2022-08-05T09:55:57.383Z,13.60
2022-08-05T09:58:29.365Z,17.02
2022-08-05T10:01:13.360Z,14.98
2022-08-05T10:03:59.357Z,11.02
2022-08-05T10:06:31.117Z,13.48
2022-08-05T10:09:27.477Z,14.40
2022-08-05T10:12:18.640Z,15.02
2022-08-05T10:15:20.170Z,18.23
2022-08-05T10:18:12.650Z,15.38
2022-08-05T10:20:47.836Z,13.25
2022-08-05T10:23:34.534Z,14.30
2022-08-05T10:26:13.798Z,12.30
2022-08-05T10:28:47.342Z,14.50
2022-08-05T10:33:01.408Z,13.40
2022-08-05T10:34:09.573Z,14.43
2022-08-05T10:36:40.556Z,13.73
2022-08-05T10:39:25.260Z,14.00
2022-08-05T10:42:14.515Z,12.35
2022-08-05T10:44:49.192Z,11.10
2022-08-05T10:47:26.817Z,11.75
2022-08-05T10:50:36.639Z,15.95
2022-08-05T10:52:58.640Z,11.95
2022-08-05T10:55:30.298Z,11.95
2022-08-05T10:58:11.490Z,8.52
2022-08-05T11:00:48.038Z,13.40
2022-08-05T11:03:25.979Z,9.63
2022-08-05T11:06:08.501Z,11.38
2022-08-05T11:09:32.463Z,10.68
2022-08-05T11:12:50.462Z,13.13
2022-08-05T11:18:32.342Z,11.20
2022-08-05T11:21:11.222Z,9.43
2022-08-05T11:24:05.352Z,13.75
2022-08-05T11:26:40.921Z,11.18
2022-08-05T11:29:40.786Z,12.65
2022-08-05T11:32:26.287Z,9.80
2022-08-05T11:34:59.154Z,10.73
2022-08-05T11:38:29.890Z,8.50
2022-08-05T11:41:36.838Z,8.63
2022-08-05T11:44:05.742Z,11.18
2022-08-05T11:47:09.911Z,13.65
2022-08-05T11:49:34.100Z,9.45
2022-08-05T11:52:08.810Z,7.82
2022-08-05T11:54:43.627Z,12.27
2022-08-05T11:57:28.672Z,10.55
2022-08-05T11:59:59.766Z,8.63
2022-08-05T12:02:33.063Z,9.98
2022-08-05T12:05:08.227Z,11.40
2022-08-05T12:08:10.270Z,13.25
2022-08-05T12:10:45.707Z,9.18
2022-08-05T12:13:48.072Z,10.00
2022-08-05T12:16:14.775Z,9.38
2022-08-05T12:18:52.250Z,9.52
2022-08-05T12:21:24.943Z,9.35
2022-08-05T12:24:04.751Z,8.90
2022-08-05T12:26:35.631Z,10.73
2022-08-05T12:29:09.576Z,9.70
2022-08-05T12:31:49.778Z,7.75
2022-08-05T12:34:28.096Z,9.57
2022-08-05T12:36:59.228Z,8.23
2022-08-05T12:39:37.336Z,9.27
2022-08-05T12:42:14.672Z,8.63
2022-08-05T12:44:44.362Z,8.18
2022-08-05T12:47:25.560Z,11.63
2022-08-05T12:50:04.652Z,8.98
2022-08-05T12:52:39.742Z,11.13
2022-08-05T12:55:25.669Z,11.57
2022-08-05T12:58:38.855Z,11.75
2022-08-05T13:02:02.217Z,10.60
2022-08-05T13:03:41.343Z,9.02
2022-08-05T13:06:16.792Z,10.52
2022-08-05T13:08:50.759Z,11.57
2022-08-05T13:12:01.139Z,10.68
2022-08-05T13:14:25.122Z,8.32
2022-08-05T13:19:52.627Z,9.63
2022-08-05T13:22:29.731Z,8.20
2022-08-05T13:25:05.095Z,10.52
2022-08-05T13:27:40.285Z,11.02
2022-08-05T13:30:32.922Z,8.45
2022-08-05T13:33:01.606Z,8.67
2022-08-05T13:35:47.377Z,9.20
2022-08-05T13:38:30.330Z,9.20
2022-08-05T13:41:00.613Z,9.65
2022-08-05T13:43:45.689Z,9.27
2022-08-05T13:46:30.842Z,9.20
2022-08-05T13:49:10.575Z,8.50
2022-08-05T13:51:46.688Z,9.35
2022-08-05T13:54:21.161Z,9.00
2022-08-05T13:56:54.370Z,8.13
2022-08-05T13:59:26.963Z,8.88
2022-08-05T14:01:57.967Z,7.30
2022-08-05T14:04:50.500Z,9.15
2022-08-05T14:07:25.702Z,9.05
2022-08-05T14:10:18.378Z,7.55
2022-08-05T14:12:48.906Z,7.15
2022-08-05T14:16:07.071Z,7.47
2022-08-05T14:18:14.777Z,8.10
2022-08-05T14:20:48.987Z,5.95
2022-08-05T14:23:25.047Z,6.40
2022-08-05T14:25:59.464Z,7.97
2022-08-05T14:28:29.239Z,7.82
2022-08-05T14:31:00.600Z,7.25
2022-08-05T14:33:59.132Z,6.40
2022-08-05T14:36:23.440Z,6.07
2022-08-05T14:38:52.448Z,4.88
2022-08-05T14:41:22.454Z,5.82
2022-08-05T14:43:58.986Z,6.88
2022-08-05T14:46:35.074Z,6.50
2022-08-05T14:49:08.113Z,5.75
2022-08-05T14:51:38.097Z,6.07
2022-08-05T14:54:27.501Z,6.95
2022-08-05T14:56:56.458Z,7.00
2022-08-05T14:59:29.497Z,5.90
2022-08-05T15:02:15.920Z,5.60
2022-08-05T15:04:53.809Z,5.40
2022-08-05T15:08:06.697Z,7.20
2022-08-05T15:10:12.476Z,6.88
2022-08-05T15:13:00.619Z,7.32
2022-08-05T15:15:55.106Z,6.53
2022-08-05T15:18:20.157Z,5.57
2022-08-05T15:20:49.071Z,5.07
2022-08-05T15:23:17.861Z,5.53
2022-08-05T15:25:52.225Z,9.23
2022-08-05T15:28:27.656Z,6.18
2022-08-05T15:30:56.427Z,7.65
2022-08-05T15:34:04.945Z,5.15
2022-08-05T15:36:17.537Z,5.82
2022-08-05T15:41:00.573Z,7.07
2022-08-05T15:41:58.531Z,5.10
2022-08-05T15:44:28.329Z,4.20
2022-08-05T15:46:59.442Z,3.70
2022-08-05T15:49:48.171Z,3.08
2022-08-05T15:52:29.578Z,2.65
2022-08-05T15:55:10.350Z,7.47
2022-08-05T15:57:45.112Z,5.50
2022-08-05T16:00:17.385Z,4.28
2022-08-05T16:03:00.458Z,3.45
2022-08-05T16:05:30.501Z,7.28
2022-08-05T16:08:00.070Z,4.30
2022-08-05T16:10:29.526Z,5.30
2022-08-05T16:12:59.387Z,6.85
2022-08-05T16:15:32.395Z,4.80
2022-08-05T16:18:01.078Z,5.07
2022-08-05T16:20:34.290Z,5.80
2022-08-05T16:23:03.591Z,8.60
2022-08-05T16:25:33.910Z,5.25
2022-08-05T16:28:05.722Z,4.57
2022-08-05T16:30:36.124Z,3.97
2022-08-05T16:33:04.993Z,5.97
2022-08-05T16:35:41.950Z,10.02
2022-08-05T16:38:18.848Z,6.03
2022-08-05T16:40:59.527Z,4.85
2022-08-05T16:43:31.722Z,6.70
2022-08-05T16:46:04.125Z,5.72
2022-08-05T16:48:37.877Z,5.68
2022-08-05T16:51:10.766Z,7.40
2022-08-05T16:54:04.147Z,8.48
2022-08-05T16:56:34.681Z,5.60
2022-08-05T16:59:08.708Z,13.05
2022-08-05T17:01:54.152Z,2.95
2022-08-05T17:04:26.466Z,4.82
2022-08-05T17:07:00.911Z,6.43
2022-08-05T17:09:57.527Z,4.00
2022-08-05T17:12:22.747Z,2.55
2022-08-05T17:15:09.678Z,5.53
2022-08-05T17:17:44.331Z,5.38
2022-08-05T17:20:14.733Z,3.70
2022-08-05T17:22:45.025Z,2.88
2022-08-05T17:25:34.204Z,4.13
2022-08-05T17:28:01.966Z,3.28
2022-08-05T17:30:30.592Z,4.20
2022-08-05T17:32:59.524Z,4.88
2022-08-05T17:35:32.553Z,4.78
2022-08-05T17:38:17.687Z,1.85
2022-08-05T17:40:47.597Z,5.75
2022-08-05T17:43:17.947Z,3.70
2022-08-05T17:46:06.917Z,6.03
2022-08-05T17:51:08.980Z,5.28
2022-08-05T17:53:39.212Z,4.28
2022-08-05T17:56:09.339Z,3.50
2022-08-05T17:58:39.463Z,4.88
2022-08-05T18:01:09.776Z,4.65
2022-08-05T18:03:58.469Z,6.57
2022-08-05T18:06:31.215Z,4.97
2022-08-05T18:09:03.710Z,5.10
2022-08-05T18:11:33.047Z,3.78
2022-08-05T18:14:04.524Z,4.60
2022-08-05T18:16:43.670Z,3.03
2022-08-05T18:19:22.675Z,4.50
2022-08-05T18:22:09.245Z,4.80
2022-08-05T18:24:41.939Z,7.75
2022-08-05T18:27:12.896Z,5.45
2022-08-05T18:29:54.384Z,4.65
2022-08-05T18:32:28.193Z,4.00
2022-08-05T18:34:58.127Z,3.67
2022-08-05T18:37:33.231Z,3.35
2022-08-05T18:40:33.930Z,3.80
2022-08-05T18:42:54.388Z,5.13
2022-08-05T18:45:23.144Z,3.47
2022-08-05T18:47:56.633Z,3.95
2022-08-05T18:50:45.303Z,6.13
2022-08-05T18:53:20.482Z,6.70
2022-08-05T18:55:54.589Z,3.33
2022-08-05T18:58:27.105Z,4.90
2022-08-05T19:00:57.559Z,7.15
2022-08-05T19:03:53.171Z,5.30
2022-08-05T19:06:20.140Z,4.25
2022-08-05T19:08:51.047Z,6.47
2022-08-05T19:11:28.422Z,2.67
2022-08-05T19:14:00.687Z,3.28
2022-08-05T19:16:35.317Z,4.25
2022-08-05T19:19:15.370Z,4.65
2022-08-05T19:21:51.618Z,3.33
2022-08-05T19:24:34.735Z,2.97
2022-08-05T19:27:08.130Z,2.42
2022-08-05T19:29:39.325Z,3.30
2022-08-05T19:32:11.477Z,4.40
2022-08-05T19:37:11.981Z,5.75
2022-08-05T19:39:45.784Z,5.75
2022-08-05T19:42:35.021Z,4.80
2022-08-05T19:45:05.992Z,5.32
2022-08-05T19:47:37.709Z,5.82
2022-08-05T19:50:07.721Z,4.60
2022-08-05T19:52:39.234Z,3.00
2022-08-05T19:56:15.093Z,7.57
2022-08-05T19:58:19.554Z,3.92
2022-08-05T20:00:48.419Z,3.40
2022-08-05T20:03:18.430Z,6.35
2022-08-05T20:05:51.345Z,5.15
2022-08-05T20:08:24.495Z,4.50
2022-08-05T20:10:53.569Z,4.07
2022-08-05T20:13:54.788Z,6.03
2022-08-05T20:16:12.598Z,3.13
2022-08-05T20:18:48.347Z,6.25
2022-08-05T20:21:25.332Z,4.70
2022-08-05T20:23:53.718Z,6.05
2022-08-05T20:26:25.771Z,7.22
2022-08-05T20:28:58.097Z,2.63
2022-08-05T20:31:42.034Z,4.70
2022-08-05T20:34:12.681Z,3.63
2022-08-05T20:36:43.243Z,6.40
2022-08-05T20:39:13.357Z,3.17
2022-08-05T20:44:29.968Z,7.25
2022-08-05T20:47:00.747Z,6.13
2022-08-05T20:49:29.375Z,8.80
2022-08-05T20:51:58.606Z,6.57
2022-08-05T20:54:43.329Z,5.18
2022-08-05T20:57:24.793Z,3.47
2022-08-05T21:00:20.876Z,3.70
2022-08-05T21:03:06.119Z,5.50
2022-08-05T21:05:53.543Z,6.95
2022-08-05T21:08:27.925Z,11.05
2022-08-05T21:11:09.075Z,4.85
2022-08-05T21:13:55.863Z,6.38
2022-08-05T21:16:29.569Z,5.20
2022-08-05T21:18:59.992Z,8.23
2022-08-05T21:21:39.240Z,5.00
2022-08-05T21:24:12.751Z,5.13
2022-08-05T21:26:45.942Z,5.70
2022-08-05T21:29:17.068Z,6.00
2022-08-05T21:31:46.880Z,5.80
2022-08-05T21:34:18.064Z,6.05
2022-08-05T21:36:46.667Z,5.97
2022-08-05T21:39:26.612Z,5.90
2022-08-05T21:42:02.008Z,6.13
2022-08-05T21:44:33.899Z,5.97
2022-08-05T21:47:03.993Z,3.97
2022-08-05T21:49:48.386Z,4.90
2022-08-05T21:52:29.050Z,5.75
2022-08-05T21:55:06.863Z,5.35
2022-08-05T21:57:37.300Z,5.72
2022-08-05T22:00:13.275Z,6.60
2022-08-05T22:02:45.002Z,8.32
2022-08-05T22:05:14.841Z,10.40
2022-08-05T22:07:59.082Z,6.30
2022-08-05T22:10:29.134Z,8.30
2022-08-05T22:12:59.067Z,6.35
2022-08-05T22:16:00.723Z,6.20
2022-08-05T22:18:28.073Z,7.13
2022-08-05T22:21:04.224Z,7.68
2022-08-05T22:24:08.845Z,5.80
2022-08-05T22:27:16.466Z,5.68
2022-08-05T22:29:46.066Z,6.10
2022-08-05T22:32:17.452Z,7.68
2022-08-05T22:34:47.752Z,6.22
2022-08-05T22:37:16.926Z,10.35
2022-08-05T22:39:50.388Z,6.65
2022-08-05T22:42:25.986Z,6.18
2022-08-05T22:44:56.754Z,5.35
2022-08-05T22:47:28.916Z,8.65
2022-08-05T22:50:20.594Z,6.15
2022-08-05T22:52:52.527Z,9.90
2022-08-05T22:55:22.151Z,6.43
2022-08-05T22:57:51.417Z,7.28
2022-08-05T23:00:22.684Z,8.35
2022-08-05T23:02:53.334Z,7.43
2022-08-05T23:05:24.514Z,5.70
2022-08-05T23:07:53.147Z,5.28
2022-08-05T23:10:23.484Z,7.95
2022-08-05T23:12:54.371Z,7.13
2022-08-05T23:15:29.483Z,6.30
2022-08-05T23:18:02.244Z,7.70
2022-08-05T23:20:37.553Z,5.30
2022-08-05T23:23:11.778Z,6.28
2022-08-05T23:25:50.923Z,5.60
2022-08-05T23:28:23.957Z,5.32
2022-08-05T23:31:02.212Z,4.63
2022-08-05T23:34:04.226Z,4.28
2022-08-05T23:36:40.103Z,5.07
2022-08-05T23:39:16.281Z,6.10
2022-08-05T23:41:48.427Z,8.95
2022-08-05T23:44:17.459Z,7.28
2022-08-05T23:46:48.831Z,5.57
2022-08-05T23:49:22.281Z,10.13
2022-08-05T23:52:12.675Z,8.65
2022-08-05T23:54:45.911Z,9.38
2022-08-05T23:57:14.745Z,8.13
